Terminal Aerodrome Forecast
Issued by NWS

Home | Current Version | Previous Version | Graphics & Text | Print | Product List | Glossary On
Versions: 1 2 3 4 5 6 7 8 9 10 11 12 13 14 15 16 17 18 19
142
FTUS43 KICT 311941 AAA
TAFHUT
TAF AMD
KHUT 311941Z 3120/0118 04005KT P6SM SCT035 OVC100
     FM312300 04006KT P6SM BKN040
     FM010200 02010KT P6SM SCT040=

USA.gov is the U.S. government's official web portal to all federal, state and local government web resources and services.